createdAt,value
2018-11-21T00:00:10.091Z,22.90
2018-11-21T00:01:10.038Z,23.50
2018-11-21T00:02:10.094Z,23.10
2018-11-21T00:03:10.014Z,23.00
2018-11-21T00:04:10.026Z,23.20
2018-11-21T00:05:09.996Z,23.40
2018-11-21T00:06:09.986Z,23.30
2018-11-21T00:07:10.059Z,23.50
2018-11-21T00:08:09.962Z,23.40
2018-11-21T00:09:09.951Z,24.40
2018-11-21T00:10:09.951Z,22.80
2018-11-21T00:11:09.930Z,22.00
2018-11-21T00:12:09.924Z,22.10
2018-11-21T00:13:09.977Z,23.60
2018-11-21T00:14:09.897Z,22.70
2018-11-21T00:15:09.889Z,23.20
2018-11-21T00:16:09.876Z,24.30
2018-11-21T00:17:09.875Z,24.30
2018-11-21T00:18:10.174Z,23.70
2018-11-21T00:19:09.852Z,24.20
2018-11-21T00:20:09.832Z,22.90
2018-11-21T00:21:09.822Z,23.60
2018-11-21T00:22:09.827Z,22.70
2018-11-21T00:23:09.874Z,22.80
2018-11-21T00:24:09.799Z,23.40
2018-11-21T00:25:09.787Z,23.00
2018-11-21T00:26:09.775Z,23.30
2018-11-21T00:27:09.758Z,24.10
2018-11-21T00:28:09.820Z,23.90
2018-11-21T00:29:09.740Z,23.60
2018-11-21T00:30:09.727Z,23.60
2018-11-21T00:31:09.724Z,23.00
2018-11-21T00:32:09.708Z,23.60
2018-11-21T00:33:09.760Z,23.80
2018-11-21T00:34:09.696Z,23.40
2018-11-21T00:35:09.674Z,24.50
2018-11-21T00:36:09.664Z,24.10
2018-11-21T00:37:09.653Z,23.00
2018-11-21T00:38:09.718Z,23.80
2018-11-21T00:39:10.595Z,23.20
2018-11-21T00:40:09.628Z,23.70
2018-11-21T00:41:09.625Z,23.70
2018-11-21T00:42:09.600Z,23.60
2018-11-21T00:43:09.588Z,24.70
2018-11-21T00:44:09.642Z,23.80
2018-11-21T00:45:09.570Z,23.70
2018-11-21T00:46:09.558Z,24.30
2018-11-21T00:47:09.582Z,23.80
2018-11-21T00:48:09.537Z,23.60
2018-11-21T00:49:09.599Z,24.70
2018-11-21T00:50:09.516Z,23.70
2018-11-21T00:51:09.504Z,24.50
2018-11-21T00:52:09.495Z,24.10
2018-11-21T00:53:09.487Z,23.50
2018-11-21T00:54:09.474Z,24.60
2018-11-21T00:55:09.528Z,23.50
2018-11-21T00:56:09.450Z,24.60
2018-11-21T00:57:09.439Z,23.80
2018-11-21T00:58:09.433Z,24.60
2018-11-21T00:59:09.421Z,25.00
2018-11-21T01:00:09.669Z,24.20
2018-11-21T01:01:09.400Z,25.00
2018-11-21T01:02:09.388Z,24.60
2018-11-21T01:03:09.376Z,24.50
2018-11-21T01:04:09.370Z,23.60
2018-11-21T01:05:09.358Z,24.10
2018-11-21T01:06:09.407Z,23.70
2018-11-21T01:07:09.337Z,23.40
2018-11-21T01:08:09.330Z,23.80
2018-11-21T01:09:09.319Z,24.30
2018-11-21T01:10:09.302Z,24.00
2018-11-21T01:11:09.356Z,23.60
2018-11-21T01:12:09.280Z,24.50
2018-11-21T01:13:09.269Z,25.80
2018-11-21T01:14:09.262Z,25.40
2018-11-21T01:15:09.248Z,24.60
2018-11-21T01:16:09.303Z,25.20
2018-11-21T01:17:09.233Z,23.80
2018-11-21T01:18:09.218Z,25.50
2018-11-21T01:19:09.209Z,25.20
2018-11-21T01:20:09.194Z,24.10
2018-11-21T01:21:09.655Z,24.80
2018-11-21T01:22:09.181Z,25.10
2018-11-21T01:23:09.165Z,24.70
2018-11-21T01:24:09.157Z,24.40
2018-11-21T01:25:10.087Z,23.60
2018-11-21T01:26:09.132Z,24.40
2018-11-21T01:27:09.189Z,24.30
2018-11-21T01:28:09.111Z,25.00
2018-11-21T01:29:09.107Z,24.80
2018-11-21T01:30:09.112Z,25.00
2018-11-21T01:31:09.081Z,24.60
2018-11-21T01:32:09.141Z,24.70
2018-11-21T01:33:09.705Z,23.70
2018-11-21T01:34:09.051Z,25.70
2018-11-21T01:35:09.040Z,24.70
2018-11-21T01:36:09.035Z,25.10
2018-11-21T01:37:09.015Z,24.60
2018-11-21T01:38:09.071Z,25.50
2018-11-21T01:39:09.000Z,25.10
2018-11-21T01:40:08.985Z,24.90
2018-11-21T01:41:08.980Z,25.10
2018-11-21T01:42:09.582Z,25.20
2018-11-21T01:43:09.019Z,25.00
2018-11-21T01:44:08.947Z,25.00
2018-11-21T01:45:08.943Z,26.50
2018-11-21T01:46:08.932Z,26.50
2018-11-21T01:47:08.914Z,26.30
2018-11-21T01:48:08.971Z,26.20
2018-11-21T01:49:08.893Z,26.00
2018-11-21T01:50:08.892Z,25.00
2018-11-21T01:51:08.866Z,23.60
2018-11-21T01:52:08.860Z,25.40
2018-11-21T01:53:08.917Z,25.70
2018-11-21T01:54:08.837Z,25.10
2018-11-21T01:55:08.824Z,26.70
2018-11-21T01:56:08.812Z,26.10
2018-11-21T01:57:08.801Z,25.50
2018-11-21T01:58:08.861Z,25.00
2018-11-21T01:59:08.788Z,26.40
2018-11-21T02:00:08.771Z,24.80
2018-11-21T02:01:08.769Z,26.90
2018-11-21T02:02:08.752Z,25.60
2018-11-21T02:03:09.155Z,25.70
2018-11-21T02:04:08.731Z,26.20
2018-11-21T02:05:08.725Z,25.70
2018-11-21T02:06:08.708Z,26.30
2018-11-21T02:07:08.702Z,28.00
2018-11-21T02:08:08.753Z,24.40
2018-11-21T02:09:08.676Z,27.20
2018-11-21T02:10:08.673Z,27.40
2018-11-21T02:11:08.659Z,25.70
2018-11-21T02:12:08.651Z,25.80
2018-11-21T02:13:08.700Z,25.20
2018-11-21T02:14:08.625Z,27.30
2018-11-21T02:15:08.616Z,27.70
2018-11-21T02:16:08.604Z,26.60
2018-11-21T02:17:08.594Z,24.50
2018-11-21T02:18:08.654Z,25.20
2018-11-21T02:19:08.575Z,26.60
2018-11-21T02:20:08.565Z,25.60
2018-11-21T02:21:08.556Z,24.80
2018-11-21T02:22:08.547Z,26.50
2018-11-21T02:23:08.601Z,26.10
2018-11-21T02:24:09.077Z,27.90
2018-11-21T02:25:08.511Z,24.70
2018-11-21T02:26:08.503Z,27.50
2018-11-21T02:27:08.490Z,26.70
2018-11-21T02:28:08.478Z,25.80
2018-11-21T02:29:08.536Z,26.80
2018-11-21T02:30:08.476Z,26.50
2018-11-21T02:31:08.449Z,27.20
2018-11-21T02:32:08.446Z,28.00
2018-11-21T02:33:08.428Z,27.70
2018-11-21T02:34:08.492Z,26.90
2018-11-21T02:35:08.414Z,27.20
2018-11-21T02:36:08.399Z,26.00
2018-11-21T02:37:08.399Z,26.40
2018-11-21T02:38:08.374Z,27.00
2018-11-21T02:39:08.366Z,27.50
2018-11-21T02:40:08.414Z,27.10
2018-11-21T02:41:08.361Z,28.10
2018-11-21T02:42:08.338Z,24.80
2018-11-21T02:43:08.324Z,27.40
2018-11-21T02:44:08.320Z,26.90
2018-11-21T02:45:08.652Z,27.90
2018-11-21T02:46:08.294Z,28.10
2018-11-21T02:47:08.282Z,27.60
2018-11-21T02:48:08.270Z,27.90
2018-11-21T02:49:08.258Z,27.70
2018-11-21T02:50:08.324Z,28.70
2018-11-21T02:51:08.242Z,27.60
2018-11-21T02:52:08.233Z,26.00
2018-11-21T02:53:08.219Z,27.10
2018-11-21T02:54:08.210Z,26.50
2018-11-21T02:55:08.264Z,25.90
2018-11-21T02:56:08.189Z,26.90
2018-11-21T02:57:08.180Z,28.00
2018-11-21T02:58:08.167Z,26.80
2018-11-21T02:59:08.164Z,28.30
2018-11-21T03:00:08.218Z,28.00
2018-11-21T03:01:08.135Z,27.70
2018-11-21T03:02:08.128Z,27.80
2018-11-21T03:03:08.117Z,27.70
2018-11-21T03:04:08.106Z,27.60
2018-11-21T03:05:08.093Z,27.20
2018-11-21T03:06:09.156Z,27.80
2018-11-21T03:07:08.081Z,26.70
2018-11-21T03:08:08.065Z,28.20
2018-11-21T03:09:08.057Z,27.70
2018-11-21T03:10:08.043Z,28.80
2018-11-21T03:11:08.104Z,27.80
2018-11-21T03:12:08.025Z,28.50
2018-11-21T03:13:08.013Z,28.30
2018-11-21T03:14:08.025Z,29.00
2018-11-21T03:15:07.995Z,28.70
2018-11-21T03:16:08.054Z,29.00
2018-11-21T03:17:07.973Z,28.20
2018-11-21T03:18:07.959Z,28.90
2018-11-21T03:19:07.950Z,27.60
2018-11-21T03:20:07.962Z,28.70
2018-11-21T03:21:07.930Z,27.60
2018-11-21T03:22:07.994Z,29.10
2018-11-21T03:23:07.908Z,29.80
2018-11-21T03:24:07.897Z,29.20
2018-11-21T03:25:07.893Z,29.70
2018-11-21T03:26:07.882Z,29.60
2018-11-21T03:27:08.582Z,29.50
2018-11-21T03:28:07.930Z,29.90
2018-11-21T03:29:07.848Z,29.30
2018-11-21T03:30:07.834Z,30.40
2018-11-21T03:31:07.827Z,29.10
2018-11-21T03:32:07.816Z,29.90
2018-11-21T03:33:07.862Z,30.70
2018-11-21T03:34:07.797Z,29.00
2018-11-21T03:35:07.788Z,31.20
2018-11-21T03:36:07.780Z,27.70
2018-11-21T03:37:07.767Z,28.70
2018-11-21T03:38:07.827Z,29.20
2018-11-21T03:39:07.744Z,30.30
2018-11-21T03:40:07.735Z,29.40
2018-11-21T03:41:07.720Z,29.10
2018-11-21T03:42:07.709Z,30.00
2018-11-21T03:43:07.706Z,27.40
2018-11-21T03:44:07.757Z,28.80
2018-11-21T03:45:07.681Z,31.10
2018-11-21T03:46:07.669Z,29.20
2018-11-21T03:47:07.663Z,29.80
2018-11-21T03:48:08.563Z,31.40
2018-11-21T03:49:07.703Z,31.50
2018-11-21T03:50:07.632Z,30.40
2018-11-21T03:51:07.615Z,31.00
2018-11-21T03:52:07.608Z,30.80
2018-11-21T03:53:07.595Z,31.40
2018-11-21T03:54:07.665Z,29.60
2018-11-21T03:55:07.582Z,31.30
2018-11-21T03:56:07.569Z,29.70
2018-11-21T03:57:07.556Z,30.60
2018-11-21T03:58:07.544Z,30.50
2018-11-21T03:59:07.606Z,29.90
2018-11-21T04:00:07.528Z,29.90
2018-11-21T04:01:07.511Z,31.50
2018-11-21T04:02:07.502Z,30.90
2018-11-21T04:03:07.490Z,32.80
2018-11-21T04:04:07.487Z,30.20
2018-11-21T04:05:07.536Z,30.60
2018-11-21T04:06:07.463Z,32.30
2018-11-21T04:07:07.451Z,30.40
2018-11-21T04:08:07.440Z,29.00
2018-11-21T04:09:08.069Z,29.90
2018-11-21T04:10:07.480Z,30.30
2018-11-21T04:11:07.407Z,28.90
2018-11-21T04:12:07.405Z,30.10
2018-11-21T04:13:07.391Z,31.20
2018-11-21T04:14:07.381Z,31.20
2018-11-21T04:15:07.426Z,30.30
2018-11-21T04:16:07.355Z,29.80
2018-11-21T04:17:07.360Z,31.30
2018-11-21T04:18:07.334Z,31.60
2018-11-21T04:19:07.326Z,30.80
2018-11-21T04:20:07.385Z,30.80
2018-11-21T04:21:07.303Z,30.60
2018-11-21T04:22:07.293Z,31.00
2018-11-21T04:23:07.290Z,29.80
2018-11-21T04:24:07.275Z,31.20
2018-11-21T04:25:07.276Z,30.20
2018-11-21T04:26:07.315Z,29.40
2018-11-21T04:27:07.244Z,29.00
2018-11-21T04:28:07.233Z,29.60
2018-11-21T04:29:07.222Z,30.80
2018-11-21T04:30:08.060Z,31.90
2018-11-21T04:31:07.264Z,30.60
2018-11-21T04:32:07.191Z,31.20
2018-11-21T04:33:07.174Z,32.20
2018-11-21T04:34:07.165Z,30.70
2018-11-21T04:35:07.153Z,32.10
2018-11-21T04:36:07.208Z,28.90
2018-11-21T04:37:07.137Z,31.10
2018-11-21T04:38:07.145Z,28.90
2018-11-21T04:39:07.125Z,30.40
2018-11-21T04:40:07.102Z,29.10
2018-11-21T04:41:07.161Z,29.30
2018-11-21T04:42:07.089Z,30.50
2018-11-21T04:43:07.072Z,32.30
2018-11-21T04:44:07.089Z,31.00
2018-11-21T04:45:07.053Z,30.50
2018-11-21T04:46:07.107Z,30.70
2018-11-21T04:47:07.030Z,30.40
2018-11-21T04:48:07.016Z,30.20
2018-11-21T04:49:07.007Z,28.70
2018-11-21T04:50:06.997Z,31.40
2018-11-21T04:51:07.550Z,29.60
2018-11-21T04:52:07.073Z,31.20
2018-11-21T04:53:06.967Z,29.60
2018-11-21T04:54:06.956Z,30.80
2018-11-21T04:55:06.948Z,31.30
2018-11-21T04:56:06.932Z,31.10
2018-11-21T04:57:06.992Z,29.40
2018-11-21T04:58:06.912Z,33.50
2018-11-21T04:59:06.905Z,31.90
2018-11-21T05:00:06.891Z,31.30
2018-11-21T05:01:06.882Z,30.30
2018-11-21T05:02:06.940Z,32.50
2018-11-21T05:03:06.858Z,31.80
2018-11-21T05:04:06.854Z,31.20
2018-11-21T05:05:06.840Z,31.60
2018-11-21T05:06:06.834Z,29.50
2018-11-21T05:07:06.883Z,32.10
2018-11-21T05:08:06.806Z,32.10
2018-11-21T05:09:06.795Z,30.60
2018-11-21T05:10:07.547Z,29.80
2018-11-21T05:11:06.777Z,31.60
2018-11-21T05:12:07.120Z,31.80
2018-11-21T05:13:06.765Z,29.80
2018-11-21T05:14:06.748Z,32.50
2018-11-21T05:15:06.732Z,32.10
2018-11-21T05:16:06.724Z,30.80
2018-11-21T05:17:06.716Z,33.20
2018-11-21T05:18:06.774Z,33.00
2018-11-21T05:19:06.701Z,33.30
2018-11-21T05:20:06.682Z,30.20
2018-11-21T05:21:06.672Z,31.80
2018-11-21T05:22:06.661Z,31.90
2018-11-21T05:23:06.709Z,30.30
2018-11-21T05:24:06.640Z,32.70
2018-11-21T05:25:06.635Z,33.40
2018-11-21T05:26:06.632Z,34.00
2018-11-21T05:27:07.542Z,32.40
2018-11-21T05:28:06.659Z,33.10
2018-11-21T05:29:06.591Z,33.10
2018-11-21T05:30:06.577Z,33.60
2018-11-21T05:31:06.577Z,33.20
2018-11-21T05:32:06.558Z,33.50
2018-11-21T05:33:07.121Z,32.10
2018-11-21T05:34:06.539Z,31.40
2018-11-21T05:35:06.542Z,32.30
2018-11-21T05:36:06.538Z,33.10
2018-11-21T05:37:06.508Z,33.90
2018-11-21T05:38:06.618Z,33.10
2018-11-21T05:39:06.484Z,33.60
2018-11-21T05:40:06.475Z,31.50
2018-11-21T05:41:06.462Z,33.80
2018-11-21T05:42:06.468Z,30.60
2018-11-21T05:43:06.514Z,33.50
2018-11-21T05:44:06.447Z,34.60
2018-11-21T05:45:06.422Z,30.30
2018-11-21T05:46:06.411Z,30.90
2018-11-21T05:47:06.398Z,33.60
2018-11-21T05:48:06.403Z,35.40
2018-11-21T05:49:06.449Z,36.60
2018-11-21T05:50:06.368Z,34.50
2018-11-21T05:51:06.359Z,32.50
2018-11-21T05:52:06.348Z,32.20
2018-11-21T05:53:06.348Z,34.30
2018-11-21T05:54:06.615Z,33.90
2018-11-21T05:55:06.322Z,36.30
2018-11-21T05:56:06.334Z,36.00
2018-11-21T05:57:06.304Z,36.20
2018-11-21T05:58:06.298Z,36.30
2018-11-21T05:59:06.357Z,36.10
2018-11-21T06:00:06.264Z,35.90
2018-11-21T06:01:06.290Z,37.90
2018-11-21T06:02:06.248Z,38.30
2018-11-21T06:03:06.236Z,35.50
2018-11-21T06:04:06.222Z,35.20
2018-11-21T06:05:06.276Z,33.50
2018-11-21T06:06:09.844Z,34.70
2018-11-21T06:07:06.189Z,35.60
2018-11-21T06:08:06.183Z,34.90
2018-11-21T06:09:06.171Z,34.00
2018-11-21T06:10:06.229Z,34.40
2018-11-21T06:11:06.156Z,36.00
2018-11-21T06:12:06.139Z,36.80
2018-11-21T06:13:06.130Z,35.30
2018-11-21T06:14:06.123Z,36.30
2018-11-21T06:15:06.608Z,36.20
2018-11-21T06:16:06.113Z,36.20
2018-11-21T06:17:06.088Z,35.20
2018-11-21T06:18:06.092Z,34.20
2018-11-21T06:19:06.070Z,34.60
2018-11-21T06:20:06.127Z,36.80
2018-11-21T06:21:06.070Z,35.50
2018-11-21T06:23:04.231Z,35.10
2018-11-21T06:24:04.129Z,37.00
2018-11-21T06:25:04.195Z,35.80
2018-11-21T06:26:04.107Z,37.00
2018-11-21T06:27:04.101Z,37.20
2018-11-21T06:28:04.771Z,35.20
2018-11-21T06:29:04.096Z,35.80
2018-11-21T06:30:04.066Z,35.90
2018-11-21T06:31:04.139Z,34.90
2018-11-21T06:32:04.048Z,33.60
2018-11-21T06:33:04.046Z,35.60
2018-11-21T06:34:04.021Z,37.40
2018-11-21T06:35:04.019Z,36.20
2018-11-21T06:36:04.067Z,36.50
2018-11-21T06:37:03.992Z,36.60
2018-11-21T06:38:03.984Z,37.10
2018-11-21T06:39:03.973Z,37.80
2018-11-21T06:40:03.960Z,36.00
2018-11-21T06:41:04.036Z,36.60
2018-11-21T06:42:03.943Z,37.40
2018-11-21T06:43:03.931Z,37.00
2018-11-21T06:44:04.760Z,38.10
2018-11-21T06:45:03.913Z,37.80
2018-11-21T06:46:03.970Z,38.30
2018-11-21T06:47:03.889Z,38.70
2018-11-21T06:48:03.883Z,38.10
2018-11-21T06:49:03.869Z,38.90
2018-11-21T06:50:03.859Z,38.90
2018-11-21T06:51:03.852Z,38.70
2018-11-21T06:52:03.897Z,37.50
2018-11-21T06:53:03.831Z,37.20
2018-11-21T06:54:03.818Z,37.30
2018-11-21T06:55:03.806Z,36.40
2018-11-21T06:56:03.828Z,37.50
2018-11-21T06:57:03.854Z,36.40
2018-11-21T06:58:03.779Z,36.70
2018-11-21T06:59:03.768Z,36.50
2018-11-21T07:00:03.780Z,37.40
2018-11-21T07:01:03.749Z,38.80
2018-11-21T07:02:03.804Z,36.10
2018-11-21T07:03:03.725Z,37.20
2018-11-21T07:04:03.713Z,35.10
2018-11-21T07:05:04.260Z,36.70
2018-11-21T07:06:03.695Z,34.40
2018-11-21T07:07:03.744Z,38.60
2018-11-21T07:08:03.672Z,42.00
2018-11-21T07:09:03.660Z,38.40
2018-11-21T07:10:03.655Z,39.00
2018-11-21T07:11:03.639Z,38.70
2018-11-21T07:12:03.701Z,42.60
2018-11-21T07:13:03.618Z,41.00
2018-11-21T07:14:07.260Z,39.40
2018-11-21T07:15:03.598Z,41.00
2018-11-21T07:16:03.590Z,37.10
2018-11-21T07:17:03.581Z,35.40
2018-11-21T07:18:03.630Z,36.80
2018-11-21T07:19:03.561Z,35.50
2018-11-21T07:20:03.550Z,38.10
2018-11-21T07:21:03.537Z,38.00
2018-11-21T07:22:03.526Z,36.80
2018-11-21T07:23:03.582Z,34.30
2018-11-21T07:24:03.507Z,37.10
2018-11-21T07:25:03.496Z,35.40
2018-11-21T07:26:04.250Z,37.80
2018-11-21T07:27:03.485Z,39.80
2018-11-21T07:28:03.541Z,39.50
2018-11-21T07:29:03.462Z,39.50
2018-11-21T07:30:03.445Z,40.20
2018-11-21T07:31:03.433Z,36.70
2018-11-21T07:32:03.424Z,35.20
2018-11-21T07:33:03.414Z,35.80
2018-11-21T07:34:03.472Z,36.30
2018-11-21T07:35:03.401Z,35.30
2018-11-21T07:36:03.382Z,36.70
2018-11-21T07:37:03.372Z,36.10
2018-11-21T07:38:03.361Z,36.40
2018-11-21T07:39:03.410Z,35.60
2018-11-21T07:40:03.339Z,36.40
2018-11-21T07:41:03.329Z,36.20
2018-11-21T07:42:03.320Z,35.80
2018-11-21T07:43:03.307Z,34.30
2018-11-21T07:44:03.359Z,34.60
2018-11-21T07:45:03.286Z,34.00
2018-11-21T07:46:03.280Z,33.80
2018-11-21T07:47:04.249Z,34.60
2018-11-21T07:48:03.261Z,31.80
2018-11-21T07:49:03.311Z,32.10
2018-11-21T07:50:03.238Z,32.90
2018-11-21T07:51:03.224Z,32.40
2018-11-21T07:52:03.214Z,34.90
2018-11-21T07:53:03.205Z,31.60
2018-11-21T07:54:03.268Z,33.00
2018-11-21T07:55:03.184Z,33.90
2018-11-21T07:56:03.173Z,34.70
2018-11-21T07:57:03.161Z,34.20
2018-11-21T07:58:03.154Z,33.90
2018-11-21T07:59:03.148Z,34.20
2018-11-21T08:00:03.198Z,33.80
2018-11-21T08:01:03.128Z,35.40
2018-11-21T08:02:03.112Z,34.40
2018-11-21T08:03:03.101Z,35.70
2018-11-21T08:04:03.092Z,35.40
2018-11-21T08:05:03.150Z,36.00
2018-11-21T08:06:03.073Z,33.20
2018-11-21T08:07:03.058Z,33.80
2018-11-21T08:08:03.744Z,34.50
2018-11-21T08:09:03.056Z,32.80
2018-11-21T08:10:03.093Z,32.80
2018-11-21T08:11:03.017Z,35.40
2018-11-21T08:12:03.008Z,35.60
2018-11-21T08:13:02.996Z,34.20
2018-11-21T08:14:02.992Z,35.80
2018-11-21T08:15:03.037Z,34.30
2018-11-21T08:16:02.966Z,33.40
2018-11-21T08:17:02.952Z,33.50
2018-11-21T08:18:02.945Z,34.60
2018-11-21T08:19:02.938Z,35.30
2018-11-21T08:20:03.012Z,34.80
2018-11-21T08:21:02.913Z,34.20
2018-11-21T08:22:02.901Z,35.60
2018-11-21T08:23:02.889Z,35.40
2018-11-21T08:24:02.889Z,35.30
2018-11-21T08:25:02.886Z,32.60
2018-11-21T08:26:02.922Z,34.80
2018-11-21T08:27:02.863Z,34.10
2018-11-21T08:28:02.886Z,33.60
2018-11-21T08:29:04.737Z,34.60
2018-11-21T08:30:02.825Z,33.10
2018-11-21T08:31:02.867Z,34.10
2018-11-21T08:32:02.801Z,33.90
2018-11-21T08:33:02.790Z,34.90
2018-11-21T08:34:02.776Z,34.70
2018-11-21T08:35:02.766Z,33.60
2018-11-21T08:36:02.823Z,33.60
2018-11-21T08:37:02.746Z,33.20
2018-11-21T08:38:02.735Z,31.20
2018-11-21T08:39:02.724Z,32.50
2018-11-21T08:40:02.714Z,31.80
2018-11-21T08:41:02.775Z,31.40
2018-11-21T08:42:02.692Z,31.80
2018-11-21T08:43:02.680Z,31.40
2018-11-21T08:44:02.679Z,31.90
2018-11-21T08:45:02.660Z,32.70
2018-11-21T08:46:02.653Z,31.80
2018-11-21T08:47:02.699Z,31.50
2018-11-21T08:48:02.632Z,31.60
2018-11-21T08:49:02.626Z,32.10
2018-11-21T08:50:03.240Z,30.80
2018-11-21T08:51:02.600Z,31.70
2018-11-21T08:52:02.654Z,32.50
2018-11-21T08:53:02.576Z,33.20
2018-11-21T08:54:02.575Z,32.80
2018-11-21T08:55:03.016Z,32.90
2018-11-21T08:56:02.547Z,32.50
2018-11-21T08:57:02.594Z,31.50
2018-11-21T08:58:02.522Z,30.70
2018-11-21T08:59:02.516Z,31.70
2018-11-21T09:00:02.508Z,31.10
2018-11-21T09:01:02.578Z,31.30
2018-11-21T09:02:03.098Z,32.30
2018-11-21T09:03:02.493Z,30.40
2018-11-21T09:04:02.465Z,33.20
2018-11-21T09:05:02.450Z,33.00
2018-11-21T09:06:04.385Z,31.20
2018-11-21T09:07:02.428Z,32.80
2018-11-21T09:08:02.478Z,31.60
2018-11-21T09:09:02.411Z,33.10
2018-11-21T09:10:02.399Z,30.50
2018-11-21T09:11:03.233Z,32.10
2018-11-21T09:12:02.376Z,31.90
2018-11-21T09:13:02.429Z,30.30
2018-11-21T09:14:02.350Z,30.30
2018-11-21T09:15:02.342Z,31.20
2018-11-21T09:16:02.334Z,31.50
2018-11-21T09:17:02.325Z,34.10
2018-11-21T09:18:02.398Z,32.10
2018-11-21T09:19:02.305Z,30.70
2018-11-21T09:20:02.293Z,31.20
2018-11-21T09:21:02.275Z,31.70
2018-11-21T09:22:02.268Z,31.90
2018-11-21T09:23:02.263Z,31.90
2018-11-21T09:24:02.325Z,31.70
2018-11-21T09:25:02.241Z,31.30
2018-11-21T09:26:02.232Z,30.80
2018-11-21T09:27:02.221Z,31.80
2018-11-21T09:28:02.203Z,32.20
2018-11-21T09:29:02.260Z,31.50
2018-11-21T09:30:02.185Z,33.70
2018-11-21T09:31:02.180Z,31.20
2018-11-21T09:32:02.745Z,33.10
2018-11-21T09:33:02.150Z,31.60
2018-11-21T09:34:02.203Z,31.50
2018-11-21T09:35:02.132Z,31.60
2018-11-21T09:36:02.121Z,32.50
2018-11-21T09:37:02.127Z,32.90
2018-11-21T09:38:02.101Z,31.40
2018-11-21T09:39:02.175Z,31.60
2018-11-21T09:40:02.080Z,31.80
2018-11-21T09:41:08.370Z,31.10
2018-11-21T09:42:04.066Z,32.70
2018-11-21T09:43:02.069Z,32.80
2018-11-21T09:44:02.031Z,33.00
2018-11-21T09:45:02.094Z,32.30
2018-11-21T09:46:02.045Z,31.70
2018-11-21T09:47:02.010Z,32.00
2018-11-21T09:48:01.995Z,32.40
2018-11-21T09:49:01.982Z,31.30
2018-11-21T09:50:02.067Z,32.50
2018-11-21T09:51:01.959Z,32.10
2018-11-21T09:52:01.948Z,32.30
2018-11-21T09:53:02.729Z,31.40
2018-11-21T09:54:01.935Z,30.40
2018-11-21T09:55:01.983Z,29.70
2018-11-21T09:56:01.910Z,30.20
2018-11-21T09:57:01.895Z,30.20
2018-11-21T09:58:01.893Z,30.00
2018-11-21T09:59:01.875Z,28.50
2018-11-21T10:00:01.923Z,31.50
2018-11-21T10:01:01.852Z,30.20
2018-11-21T10:02:01.840Z,30.90
2018-11-21T10:03:01.836Z,31.20
2018-11-21T10:04:01.819Z,31.90
2018-11-21T10:05:01.876Z,30.60
2018-11-21T10:06:01.801Z,31.20
2018-11-21T10:07:01.789Z,30.40
2018-11-21T10:08:01.777Z,29.60
2018-11-21T10:09:01.769Z,30.30
2018-11-21T10:10:01.817Z,30.60
2018-11-21T10:11:01.745Z,31.80
2018-11-21T10:12:01.734Z,31.30
2018-11-21T10:13:01.775Z,31.50
2018-11-21T10:14:02.231Z,31.00
2018-11-21T10:15:01.769Z,31.60
2018-11-21T10:16:01.691Z,31.40
2018-11-21T10:17:01.682Z,30.40
2018-11-21T10:18:01.678Z,31.60
2018-11-21T10:19:01.661Z,29.10
2018-11-21T10:20:01.710Z,31.10
2018-11-21T10:21:01.643Z,31.60
2018-11-21T10:22:01.626Z,31.00
2018-11-21T10:23:01.617Z,31.00
2018-11-21T10:24:01.618Z,31.30
2018-11-21T10:25:01.658Z,30.80
2018-11-21T10:26:01.584Z,31.60
2018-11-21T10:27:01.574Z,30.30
2018-11-21T10:28:01.563Z,31.30
2018-11-21T10:29:01.552Z,31.20
2018-11-21T10:30:01.794Z,30.20
2018-11-21T10:31:01.533Z,31.30
2018-11-21T10:32:01.521Z,30.10
2018-11-21T10:33:01.517Z,31.60
2018-11-21T10:34:01.501Z,32.70
2018-11-21T10:35:02.217Z,32.40
2018-11-21T10:36:01.541Z,31.60
2018-11-21T10:37:01.473Z,31.20
2018-11-21T10:38:01.465Z,31.10
2018-11-21T10:39:01.447Z,32.00
2018-11-21T10:40:01.436Z,31.00
2018-11-21T10:41:01.492Z,31.00
2018-11-21T10:42:01.416Z,29.50
2018-11-21T10:43:01.405Z,30.40
2018-11-21T10:44:01.393Z,31.80
2018-11-21T10:45:01.381Z,31.20
2018-11-21T10:46:01.429Z,30.80
2018-11-21T10:47:01.364Z,32.20
2018-11-21T10:48:01.348Z,29.70
2018-11-21T10:49:01.339Z,32.10
2018-11-21T10:50:01.332Z,32.10
2018-11-21T10:51:01.385Z,32.00
2018-11-21T10:52:01.311Z,31.20
2018-11-21T10:53:01.295Z,31.10
2018-11-21T10:54:01.289Z,30.90
2018-11-21T10:55:01.277Z,32.30
2018-11-21T10:56:01.332Z,32.40
2018-11-21T10:57:02.178Z,31.50
2018-11-21T10:58:01.260Z,30.30
2018-11-21T10:59:01.248Z,31.20
2018-11-21T11:00:01.223Z,32.20
2018-11-21T11:01:01.284Z,32.10
2018-11-21T11:02:01.203Z,31.50
2018-11-21T11:03:01.189Z,32.50
2018-11-21T11:04:01.184Z,30.90
2018-11-21T11:05:01.170Z,30.70
2018-11-21T11:06:01.714Z,31.30
2018-11-21T11:07:01.207Z,30.20
2018-11-21T11:08:01.169Z,31.60
2018-11-21T11:09:01.127Z,29.70
2018-11-21T11:10:01.116Z,30.60
2018-11-21T11:11:01.112Z,31.20
2018-11-21T11:12:01.159Z,30.80
2018-11-21T11:13:01.087Z,31.50
2018-11-21T11:14:01.074Z,31.50
2018-11-21T11:15:01.060Z,31.10
2018-11-21T11:16:01.050Z,31.40
2018-11-21T11:17:01.105Z,32.40
2018-11-21T11:18:01.030Z,31.10
2018-11-21T11:19:01.024Z,32.10
2018-11-21T11:20:01.012Z,31.80
2018-11-21T11:21:01.001Z,30.80
2018-11-21T11:22:01.056Z,32.10
2018-11-21T11:23:00.981Z,32.70
2018-11-21T11:24:00.967Z,32.90
2018-11-21T11:25:00.959Z,30.90
2018-11-21T11:26:00.943Z,31.40
2018-11-21T11:27:01.279Z,30.70
2018-11-21T11:28:00.924Z,31.20
2018-11-21T11:29:00.913Z,29.60
2018-11-21T11:30:00.902Z,31.00
2018-11-21T11:31:00.893Z,30.20
2018-11-21T11:32:00.947Z,29.60
2018-11-21T11:33:00.930Z,30.40
2018-11-21T11:34:00.862Z,30.50
2018-11-21T11:35:00.847Z,31.00
2018-11-21T11:36:00.841Z,30.70
2018-11-21T11:37:00.826Z,31.00
2018-11-21T11:38:01.366Z,30.20
2018-11-21T11:39:00.805Z,29.40
2018-11-21T11:40:00.797Z,29.20
2018-11-21T11:41:00.785Z,28.80
2018-11-21T11:42:00.773Z,27.90
2018-11-21T11:43:00.860Z,28.70
2018-11-21T11:44:00.755Z,27.60
2018-11-21T11:45:00.746Z,27.00
2018-11-21T11:46:00.729Z,27.40
2018-11-21T11:47:00.717Z,26.70
2018-11-21T11:48:01.295Z,27.60
2018-11-21T11:49:00.715Z,26.40
2018-11-21T11:50:00.684Z,26.40
2018-11-21T11:51:00.675Z,26.50
2018-11-21T11:52:00.667Z,25.30
2018-11-21T11:53:00.731Z,25.80
2018-11-21T11:54:00.643Z,25.90
2018-11-21T11:55:00.633Z,26.00
2018-11-21T11:56:00.624Z,26.40
2018-11-21T11:57:00.610Z,25.90
2018-11-21T11:58:00.674Z,25.20
2018-11-21T11:59:00.592Z,25.80
2018-11-21T12:00:00.582Z,25.30
2018-11-21T12:01:00.571Z,26.10
2018-11-21T12:02:00.559Z,25.50
2018-11-21T12:03:00.548Z,26.10
2018-11-21T12:04:00.604Z,26.40
2018-11-21T12:05:00.525Z,26.60
2018-11-21T12:06:00.520Z,26.10
2018-11-21T12:07:00.505Z,26.70
2018-11-21T12:08:00.499Z,27.70
2018-11-21T12:09:00.833Z,26.20
2018-11-21T12:10:00.473Z,27.30
2018-11-21T12:11:00.460Z,26.90
2018-11-21T12:12:04.785Z,26.40
2018-11-21T12:13:00.443Z,26.00
2018-11-21T12:14:00.492Z,26.40
2018-11-21T12:15:00.419Z,26.10
2018-11-21T12:16:00.410Z,27.30
2018-11-21T12:17:00.398Z,27.00
2018-11-21T12:18:00.386Z,26.10
2018-11-21T12:19:00.446Z,26.60
2018-11-21T12:20:00.366Z,26.60
2018-11-21T12:21:00.354Z,25.40
2018-11-21T12:22:00.349Z,25.80
2018-11-21T12:23:00.333Z,27.10
2018-11-21T12:24:00.432Z,26.10
2018-11-21T12:25:00.319Z,26.70
2018-11-21T12:26:00.302Z,26.50
2018-11-21T12:27:00.293Z,26.90
2018-11-21T12:28:00.279Z,27.30
2018-11-21T12:29:00.336Z,26.50
2018-11-21T12:30:01.204Z,26.70
2018-11-21T12:31:00.255Z,27.80
2018-11-21T12:32:00.247Z,26.10
2018-11-21T12:33:00.232Z,26.60
2018-11-21T12:34:00.288Z,26.90
2018-11-21T12:35:00.204Z,27.20
2018-11-21T12:36:00.196Z,26.60
2018-11-21T12:37:00.189Z,27.40
2018-11-21T12:38:00.174Z,26.90
2018-11-21T12:39:00.165Z,27.10
2018-11-21T12:40:00.225Z,27.40
2018-11-21T12:41:00.142Z,27.80
2018-11-21T12:42:00.133Z,27.60
2018-11-21T12:43:00.121Z,28.50
2018-11-21T12:44:00.116Z,28.80
2018-11-21T12:45:00.162Z,27.50
2018-11-21T12:46:00.091Z,28.40
2018-11-21T12:47:00.080Z,30.00
2018-11-21T12:48:00.070Z,28.30
2018-11-21T12:49:00.059Z,29.30
2018-11-21T12:50:00.113Z,28.30
2018-11-21T12:51:00.702Z,28.30
2018-11-21T12:52:00.316Z,29.20
2018-11-21T12:53:00.015Z,27.20